sensor_id;sensor_type;location;lat;lon;timestamp;P1;durP1;ratioP1;P2;durP2;ratioP2
43345;SDS011;28937;51.160;4.146;2023-01-19T00:00:25;10.32;;;5.70;;
43345;SDS011;28937;51.160;4.146;2023-01-19T00:02:51;8.30;;;5.43;;
43345;SDS011;28937;51.160;4.146;2023-01-19T00:05:17;10.15;;;6.10;;
43345;SDS011;28937;51.160;4.146;2023-01-19T00:07:42;11.30;;;5.72;;
43345;SDS011;28937;51.160;4.146;2023-01-19T00:10:08;8.25;;;5.50;;
43345;SDS011;28937;51.160;4.146;2023-01-19T00:12:34;7.13;;;5.50;;
43345;SDS011;28937;51.160;4.146;2023-01-19T00:15:00;9.10;;;6.05;;
43345;SDS011;28937;51.160;4.146;2023-01-19T00:17:25;8.02;;;5.47;;
43345;SDS011;28937;51.160;4.146;2023-01-19T00:19:51;8.27;;;5.50;;
43345;SDS011;28937;51.160;4.146;2023-01-19T00:22:16;9.23;;;5.75;;
43345;SDS011;28937;51.160;4.146;2023-01-19T00:24:42;5.97;;;4.20;;
43345;SDS011;28937;51.160;4.146;2023-01-19T00:27:09;8.57;;;5.88;;
43345;SDS011;28937;51.160;4.146;2023-01-19T00:29:34;6.55;;;5.65;;
43345;SDS011;28937;51.160;4.146;2023-01-19T00:32:00;10.48;;;5.97;;
43345;SDS011;28937;51.160;4.146;2023-01-19T00:34:26;9.07;;;5.63;;
43345;SDS011;28937;51.160;4.146;2023-01-19T00:37:00;8.88;;;5.50;;
43345;SDS011;28937;51.160;4.146;2023-01-19T00:39:30;9.30;;;6.05;;
43345;SDS011;28937;51.160;4.146;2023-01-19T00:41:55;8.10;;;5.75;;
43345;SDS011;28937;51.160;4.146;2023-01-19T00:44:39;8.15;;;5.38;;
43345;SDS011;28937;51.160;4.146;2023-01-19T00:47:05;10.98;;;6.25;;
43345;SDS011;28937;51.160;4.146;2023-01-19T00:49:31;8.75;;;6.18;;
43345;SDS011;28937;51.160;4.146;2023-01-19T00:51:56;8.82;;;5.97;;
43345;SDS011;28937;51.160;4.146;2023-01-19T00:54:22;7.78;;;5.40;;
43345;SDS011;28937;51.160;4.146;2023-01-19T00:56:47;7.72;;;5.93;;
43345;SDS011;28937;51.160;4.146;2023-01-19T00:59:13;8.25;;;5.97;;
43345;SDS011;28937;51.160;4.146;2023-01-19T01:01:38;12.43;;;5.78;;
43345;SDS011;28937;51.160;4.146;2023-01-19T01:04:04;9.95;;;5.63;;
43345;SDS011;28937;51.160;4.146;2023-01-19T01:06:30;7.13;;;4.80;;
43345;SDS011;28937;51.160;4.146;2023-01-19T01:08:55;9.48;;;4.72;;
43345;SDS011;28937;51.160;4.146;2023-01-19T01:11:21;7.68;;;5.70;;
43345;SDS011;28937;51.160;4.146;2023-01-19T01:13:46;8.27;;;5.53;;
43345;SDS011;28937;51.160;4.146;2023-01-19T01:16:15;12.38;;;5.25;;
43345;SDS011;28937;51.160;4.146;2023-01-19T01:18:41;8.57;;;5.13;;
43345;SDS011;28937;51.160;4.146;2023-01-19T01:21:08;8.80;;;4.93;;
43345;SDS011;28937;51.160;4.146;2023-01-19T01:23:36;8.27;;;5.50;;
43345;SDS011;28937;51.160;4.146;2023-01-19T01:26:03;9.02;;;5.32;;
43345;SDS011;28937;51.160;4.146;2023-01-19T01:28:29;7.25;;;5.35;;
43345;SDS011;28937;51.160;4.146;2023-01-19T01:30:56;10.48;;;5.80;;
43345;SDS011;28937;51.160;4.146;2023-01-19T01:33:21;10.63;;;6.18;;
43345;SDS011;28937;51.160;4.146;2023-01-19T01:35:48;7.63;;;5.38;;
43345;SDS011;28937;51.160;4.146;2023-01-19T01:38:14;8.82;;;5.53;;
43345;SDS011;28937;51.160;4.146;2023-01-19T01:40:40;7.82;;;5.03;;
43345;SDS011;28937;51.160;4.146;2023-01-19T01:43:13;8.27;;;5.10;;
43345;SDS011;28937;51.160;4.146;2023-01-19T01:45:40;13.80;;;5.90;;
43345;SDS011;28937;51.160;4.146;2023-01-19T01:48:10;6.78;;;4.38;;
43345;SDS011;28937;51.160;4.146;2023-01-19T01:50:43;7.80;;;4.82;;
43345;SDS011;28937;51.160;4.146;2023-01-19T01:53:31;10.23;;;4.82;;
43345;SDS011;28937;51.160;4.146;2023-01-19T01:55:58;8.80;;;5.15;;
43345;SDS011;28937;51.160;4.146;2023-01-19T01:58:28;10.50;;;5.53;;
43345;SDS011;28937;51.160;4.146;2023-01-19T02:00:55;7.55;;;4.82;;
43345;SDS011;28937;51.160;4.146;2023-01-19T02:03:39;11.02;;;5.15;;
43345;SDS011;28937;51.160;4.146;2023-01-19T02:06:05;12.75;;;5.40;;
43345;SDS011;28937;51.160;4.146;2023-01-19T02:08:42;6.93;;;4.88;;
43345;SDS011;28937;51.160;4.146;2023-01-19T02:11:31;8.82;;;5.43;;
43345;SDS011;28937;51.160;4.146;2023-01-19T02:14:16;13.02;;;5.47;;
43345;SDS011;28937;51.160;4.146;2023-01-19T02:16:42;10.88;;;5.43;;
43345;SDS011;28937;51.160;4.146;2023-01-19T02:19:10;9.95;;;4.68;;
43345;SDS011;28937;51.160;4.146;2023-01-19T02:24:09;8.45;;;4.90;;
43345;SDS011;28937;51.160;4.146;2023-01-19T02:26:36;8.75;;;5.18;;
43345;SDS011;28937;51.160;4.146;2023-01-19T02:29:05;12.20;;;5.70;;
43345;SDS011;28937;51.160;4.146;2023-01-19T02:31:36;8.90;;;4.82;;
43345;SDS011;28937;51.160;4.146;2023-01-19T02:34:04;11.35;;;5.47;;
43345;SDS011;28937;51.160;4.146;2023-01-19T02:36:36;13.88;;;6.07;;
43345;SDS011;28937;51.160;4.146;2023-01-19T02:39:09;12.68;;;5.22;;
43345;SDS011;28937;51.160;4.146;2023-01-19T02:41:43;11.40;;;5.20;;
43345;SDS011;28937;51.160;4.146;2023-01-19T02:44:12;9.35;;;5.88;;
43345;SDS011;28937;51.160;4.146;2023-01-19T02:46:40;11.23;;;5.80;;
43345;SDS011;28937;51.160;4.146;2023-01-19T02:49:06;11.10;;;5.60;;
43345;SDS011;28937;51.160;4.146;2023-01-19T02:51:31;8.55;;;5.63;;
43345;SDS011;28937;51.160;4.146;2023-01-19T03:04:24;10.07;;;5.28;;
43345;SDS011;28937;51.160;4.146;2023-01-19T03:07:10;11.32;;;5.65;;
43345;SDS011;28937;51.160;4.146;2023-01-19T03:09:57;10.00;;;4.70;;
43345;SDS011;28937;51.160;4.146;2023-01-19T03:12:39;7.25;;;4.43;;
43345;SDS011;28937;51.160;4.146;2023-01-19T03:15:31;6.97;;;3.95;;
43345;SDS011;28937;51.160;4.146;2023-01-19T03:18:09;10.07;;;5.35;;
43345;SDS011;28937;51.160;4.146;2023-01-19T03:20:38;11.52;;;5.35;;
43345;SDS011;28937;51.160;4.146;2023-01-19T03:23:06;9.50;;;4.13;;
43345;SDS011;28937;51.160;4.146;2023-01-19T03:25:36;9.43;;;5.18;;
43345;SDS011;28937;51.160;4.146;2023-01-19T03:28:06;7.57;;;4.70;;
43345;SDS011;28937;51.160;4.146;2023-01-19T03:30:41;8.65;;;4.43;;
43345;SDS011;28937;51.160;4.146;2023-01-19T03:33:14;8.32;;;5.60;;
43345;SDS011;28937;51.160;4.146;2023-01-19T03:35:47;8.65;;;5.18;;
43345;SDS011;28937;51.160;4.146;2023-01-19T03:38:17;8.98;;;4.85;;
43345;SDS011;28937;51.160;4.146;2023-01-19T03:40:48;11.27;;;5.25;;
43345;SDS011;28937;51.160;4.146;2023-01-19T03:43:16;9.07;;;4.63;;
43345;SDS011;28937;51.160;4.146;2023-01-19T03:45:43;7.68;;;4.57;;
43345;SDS011;28937;51.160;4.146;2023-01-19T03:48:09;8.10;;;4.53;;
43345;SDS011;28937;51.160;4.146;2023-01-19T03:50:36;7.85;;;4.38;;
43345;SDS011;28937;51.160;4.146;2023-01-19T03:53:06;7.55;;;4.47;;
43345;SDS011;28937;51.160;4.146;2023-01-19T03:55:38;8.93;;;4.70;;
43345;SDS011;28937;51.160;4.146;2023-01-19T03:58:07;11.75;;;5.60;;
43345;SDS011;28937;51.160;4.146;2023-01-19T04:00:33;8.77;;;4.57;;
43345;SDS011;28937;51.160;4.146;2023-01-19T04:03:00;7.85;;;4.53;;
43345;SDS011;28937;51.160;4.146;2023-01-19T04:05:27;8.95;;;5.60;;
43345;SDS011;28937;51.160;4.146;2023-01-19T04:07:53;7.95;;;4.60;;
43345;SDS011;28937;51.160;4.146;2023-01-19T04:10:19;10.20;;;5.28;;
43345;SDS011;28937;51.160;4.146;2023-01-19T04:12:46;10.98;;;4.88;;
43345;SDS011;28937;51.160;4.146;2023-01-19T04:15:12;6.50;;;4.28;;
43345;SDS011;28937;51.160;4.146;2023-01-19T04:17:38;11.27;;;5.13;;
43345;SDS011;28937;51.160;4.146;2023-01-19T04:20:04;10.07;;;5.22;;
43345;SDS011;28937;51.160;4.146;2023-01-19T04:22:30;8.95;;;4.65;;
43345;SDS011;28937;51.160;4.146;2023-01-19T04:24:56;11.40;;;4.75;;
43345;SDS011;28937;51.160;4.146;2023-01-19T04:27:22;11.35;;;4.68;;
43345;SDS011;28937;51.160;4.146;2023-01-19T04:29:48;9.82;;;5.13;;
43345;SDS011;28937;51.160;4.146;2023-01-19T04:32:13;7.50;;;4.85;;
43345;SDS011;28937;51.160;4.146;2023-01-19T04:34:39;8.77;;;4.35;;
43345;SDS011;28937;51.160;4.146;2023-01-19T04:37:05;14.77;;;5.00;;
43345;SDS011;28937;51.160;4.146;2023-01-19T04:39:32;12.25;;;4.88;;
43345;SDS011;28937;51.160;4.146;2023-01-19T04:41:59;10.00;;;4.20;;
43345;SDS011;28937;51.160;4.146;2023-01-19T04:44:25;10.50;;;4.32;;
43345;SDS011;28937;51.160;4.146;2023-01-19T04:46:51;8.32;;;3.95;;
43345;SDS011;28937;51.160;4.146;2023-01-19T04:49:17;8.52;;;4.30;;
43345;SDS011;28937;51.160;4.146;2023-01-19T04:51:43;8.00;;;3.92;;
43345;SDS011;28937;51.160;4.146;2023-01-19T04:54:09;7.50;;;4.25;;
43345;SDS011;28937;51.160;4.146;2023-01-19T04:56:34;9.88;;;4.03;;
43345;SDS011;28937;51.160;4.146;2023-01-19T04:59:00;10.85;;;4.25;;
43345;SDS011;28937;51.160;4.146;2023-01-19T05:01:26;7.78;;;4.45;;
43345;SDS011;28937;51.160;4.146;2023-01-19T05:03:51;8.52;;;4.22;;
43345;SDS011;28937;51.160;4.146;2023-01-19T05:06:17;5.32;;;3.45;;
43345;SDS011;28937;51.160;4.146;2023-01-19T05:08:43;10.55;;;3.90;;
43345;SDS011;28937;51.160;4.146;2023-01-19T05:11:09;9.20;;;4.60;;
43345;SDS011;28937;51.160;4.146;2023-01-19T05:13:34;9.50;;;4.07;;
43345;SDS011;28937;51.160;4.146;2023-01-19T05:16:00;6.75;;;4.00;;
43345;SDS011;28937;51.160;4.146;2023-01-19T05:18:27;5.88;;;4.57;;
43345;SDS011;28937;51.160;4.146;2023-01-19T05:20:53;11.98;;;5.30;;
43345;SDS011;28937;51.160;4.146;2023-01-19T05:23:20;11.75;;;5.22;;
43345;SDS011;28937;51.160;4.146;2023-01-19T05:25:45;11.35;;;5.05;;
43345;SDS011;28937;51.160;4.146;2023-01-19T05:28:11;10.25;;;5.13;;
43345;SDS011;28937;51.160;4.146;2023-01-19T05:30:37;9.93;;;5.03;;
43345;SDS011;28937;51.160;4.146;2023-01-19T05:33:03;8.82;;;4.93;;
43345;SDS011;28937;51.160;4.146;2023-01-19T05:35:28;9.05;;;5.40;;
43345;SDS011;28937;51.160;4.146;2023-01-19T05:37:54;12.32;;;6.50;;
43345;SDS011;28937;51.160;4.146;2023-01-19T05:40:19;9.65;;;5.85;;
43345;SDS011;28937;51.160;4.146;2023-01-19T05:42:45;12.18;;;5.47;;
43345;SDS011;28937;51.160;4.146;2023-01-19T05:45:11;13.63;;;5.65;;
43345;SDS011;28937;51.160;4.146;2023-01-19T05:47:37;11.82;;;5.72;;
43345;SDS011;28937;51.160;4.146;2023-01-19T05:50:04;14.10;;;5.60;;
43345;SDS011;28937;51.160;4.146;2023-01-19T05:52:30;8.95;;;4.38;;
43345;SDS011;28937;51.160;4.146;2023-01-19T05:54:55;12.60;;;6.47;;
43345;SDS011;28937;51.160;4.146;2023-01-19T05:57:21;10.98;;;6.38;;
43345;SDS011;28937;51.160;4.146;2023-01-19T05:59:47;11.23;;;6.22;;
43345;SDS011;28937;51.160;4.146;2023-01-19T06:02:13;15.35;;;6.85;;
43345;SDS011;28937;51.160;4.146;2023-01-19T06:04:38;10.98;;;6.28;;
43345;SDS011;28937;51.160;4.146;2023-01-19T06:07:04;11.20;;;6.25;;
43345;SDS011;28937;51.160;4.146;2023-01-19T06:09:31;13.52;;;7.15;;
43345;SDS011;28937;51.160;4.146;2023-01-19T06:11:57;13.30;;;6.60;;
43345;SDS011;28937;51.160;4.146;2023-01-19T06:14:23;14.68;;;6.78;;
43345;SDS011;28937;51.160;4.146;2023-01-19T06:16:50;12.07;;;7.18;;
43345;SDS011;28937;51.160;4.146;2023-01-19T06:19:15;13.55;;;7.10;;
43345;SDS011;28937;51.160;4.146;2023-01-19T06:21:41;12.98;;;7.05;;
43345;SDS011;28937;51.160;4.146;2023-01-19T06:24:13;12.98;;;7.00;;
43345;SDS011;28937;51.160;4.146;2023-01-19T06:26:39;13.13;;;7.50;;
43345;SDS011;28937;51.160;4.146;2023-01-19T06:29:06;12.80;;;6.72;;
43345;SDS011;28937;51.160;4.146;2023-01-19T06:31:32;15.98;;;7.00;;
43345;SDS011;28937;51.160;4.146;2023-01-19T06:33:58;13.68;;;7.50;;
43345;SDS011;28937;51.160;4.146;2023-01-19T06:36:23;12.77;;;7.10;;
43345;SDS011;28937;51.160;4.146;2023-01-19T06:38:49;12.18;;;7.13;;
43345;SDS011;28937;51.160;4.146;2023-01-19T06:41:15;14.57;;;7.20;;
43345;SDS011;28937;51.160;4.146;2023-01-19T06:43:40;21.02;;;8.05;;
43345;SDS011;28937;51.160;4.146;2023-01-19T06:46:06;12.18;;;7.05;;
43345;SDS011;28937;51.160;4.146;2023-01-19T06:48:31;11.93;;;6.72;;
43345;SDS011;28937;51.160;4.146;2023-01-19T06:50:57;12.18;;;6.03;;
43345;SDS011;28937;51.160;4.146;2023-01-19T06:53:22;16.38;;;7.97;;
43345;SDS011;28937;51.160;4.146;2023-01-19T06:55:48;13.55;;;6.97;;
43345;SDS011;28937;51.160;4.146;2023-01-19T06:58:14;12.65;;;6.93;;
43345;SDS011;28937;51.160;4.146;2023-01-19T07:00:39;13.57;;;7.05;;
43345;SDS011;28937;51.160;4.146;2023-01-19T07:03:05;11.73;;;6.65;;
43345;SDS011;28937;51.160;4.146;2023-01-19T07:05:33;12.25;;;5.97;;
43345;SDS011;28937;51.160;4.146;2023-01-19T07:07:59;15.15;;;7.30;;
43345;SDS011;28937;51.160;4.146;2023-01-19T07:10:25;13.32;;;6.53;;
43345;SDS011;28937;51.160;4.146;2023-01-19T07:12:51;14.93;;;6.47;;
43345;SDS011;28937;51.160;4.146;2023-01-19T07:15:17;15.75;;;7.22;;
43345;SDS011;28937;51.160;4.146;2023-01-19T07:17:44;15.63;;;7.50;;
43345;SDS011;28937;51.160;4.146;2023-01-19T07:20:10;15.35;;;7.28;;
43345;SDS011;28937;51.160;4.146;2023-01-19T07:22:38;12.95;;;6.43;;
43345;SDS011;28937;51.160;4.146;2023-01-19T07:25:05;10.43;;;6.63;;
43345;SDS011;28937;51.160;4.146;2023-01-19T07:27:31;16.42;;;8.48;;
43345;SDS011;28937;51.160;4.146;2023-01-19T07:29:57;16.35;;;7.65;;
43345;SDS011;28937;51.160;4.146;2023-01-19T07:32:25;13.60;;;7.93;;
43345;SDS011;28937;51.160;4.146;2023-01-19T07:34:51;14.10;;;7.22;;
43345;SDS011;28937;51.160;4.146;2023-01-19T07:37:17;16.02;;;7.55;;
43345;SDS011;28937;51.160;4.146;2023-01-19T07:39:42;16.42;;;8.30;;
43345;SDS011;28937;51.160;4.146;2023-01-19T07:42:08;15.85;;;7.93;;
43345;SDS011;28937;51.160;4.146;2023-01-19T07:44:33;14.77;;;8.38;;
43345;SDS011;28937;51.160;4.146;2023-01-19T07:46:59;15.77;;;7.32;;
43345;SDS011;28937;51.160;4.146;2023-01-19T07:49:24;16.63;;;7.63;;
43345;SDS011;28937;51.160;4.146;2023-01-19T07:51:50;17.50;;;8.57;;
43345;SDS011;28937;51.160;4.146;2023-01-19T07:54:15;15.90;;;7.88;;
43345;SDS011;28937;51.160;4.146;2023-01-19T07:56:41;16.15;;;7.85;;
43345;SDS011;28937;51.160;4.146;2023-01-19T07:59:07;15.73;;;7.22;;
43345;SDS011;28937;51.160;4.146;2023-01-19T08:01:34;16.17;;;6.30;;
43345;SDS011;28937;51.160;4.146;2023-01-19T08:03:59;13.95;;;5.82;;
43345;SDS011;28937;51.160;4.146;2023-01-19T08:06:26;11.98;;;6.70;;
43345;SDS011;28937;51.160;4.146;2023-01-19T08:08:57;18.15;;;7.43;;
43345;SDS011;28937;51.160;4.146;2023-01-19T08:11:22;17.45;;;7.57;;
43345;SDS011;28937;51.160;4.146;2023-01-19T08:13:48;15.45;;;6.60;;
43345;SDS011;28937;51.160;4.146;2023-01-19T08:16:13;19.27;;;6.72;;
43345;SDS011;28937;51.160;4.146;2023-01-19T08:18:39;13.45;;;7.38;;
43345;SDS011;28937;51.160;4.146;2023-01-19T08:21:05;17.40;;;7.13;;
43345;SDS011;28937;51.160;4.146;2023-01-19T08:23:30;14.75;;;7.45;;
43345;SDS011;28937;51.160;4.146;2023-01-19T08:25:56;15.23;;;7.90;;
43345;SDS011;28937;51.160;4.146;2023-01-19T08:28:21;14.70;;;6.82;;
43345;SDS011;28937;51.160;4.146;2023-01-19T08:30:47;16.52;;;7.70;;
43345;SDS011;28937;51.160;4.146;2023-01-19T08:33:20;22.75;;;8.25;;
43345;SDS011;28937;51.160;4.146;2023-01-19T08:35:47;19.83;;;8.60;;
43345;SDS011;28937;51.160;4.146;2023-01-19T08:38:15;22.75;;;8.43;;
43345;SDS011;28937;51.160;4.146;2023-01-19T08:40:41;19.38;;;8.90;;
43345;SDS011;28937;51.160;4.146;2023-01-19T08:43:08;19.55;;;7.60;;
43345;SDS011;28937;51.160;4.146;2023-01-19T08:45:36;13.50;;;7.55;;
43345;SDS011;28937;51.160;4.146;2023-01-19T08:48:05;12.65;;;7.10;;
43345;SDS011;28937;51.160;4.146;2023-01-19T08:50:31;15.95;;;7.60;;
43345;SDS011;28937;51.160;4.146;2023-01-19T08:52:58;16.67;;;6.38;;
43345;SDS011;28937;51.160;4.146;2023-01-19T08:55:26;23.75;;;5.95;;
43345;SDS011;28937;51.160;4.146;2023-01-19T08:57:52;13.48;;;7.32;;
43345;SDS011;28937;51.160;4.146;2023-01-19T09:00:20;14.35;;;6.80;;
43345;SDS011;28937;51.160;4.146;2023-01-19T09:02:46;15.13;;;7.80;;
43345;SDS011;28937;51.160;4.146;2023-01-19T09:05:12;20.38;;;7.15;;
43345;SDS011;28937;51.160;4.146;2023-01-19T09:07:38;18.85;;;7.78;;
43345;SDS011;28937;51.160;4.146;2023-01-19T09:10:03;17.83;;;7.25;;
43345;SDS011;28937;51.160;4.146;2023-01-19T09:12:29;12.52;;;6.95;;
43345;SDS011;28937;51.160;4.146;2023-01-19T09:14:55;18.02;;;6.85;;
43345;SDS011;28937;51.160;4.146;2023-01-19T09:17:21;13.50;;;6.30;;
43345;SDS011;28937;51.160;4.146;2023-01-19T09:19:47;11.10;;;7.15;;
43345;SDS011;28937;51.160;4.146;2023-01-19T09:22:12;16.50;;;6.57;;
43345;SDS011;28937;51.160;4.146;2023-01-19T09:24:38;11.63;;;7.03;;
43345;SDS011;28937;51.160;4.146;2023-01-19T09:27:03;13.07;;;6.70;;
43345;SDS011;28937;51.160;4.146;2023-01-19T09:29:29;16.85;;;7.32;;
43345;SDS011;28937;51.160;4.146;2023-01-19T09:31:54;15.30;;;6.85;;
43345;SDS011;28937;51.160;4.146;2023-01-19T09:34:21;12.52;;;6.38;;
43345;SDS011;28937;51.160;4.146;2023-01-19T09:36:49;10.52;;;6.35;;
43345;SDS011;28937;51.160;4.146;2023-01-19T09:39:15;11.23;;;6.05;;
43345;SDS011;28937;51.160;4.146;2023-01-19T09:41:43;24.17;;;7.05;;
43345;SDS011;28937;51.160;4.146;2023-01-19T09:44:17;13.73;;;5.68;;
43345;SDS011;28937;51.160;4.146;2023-01-19T09:46:51;15.27;;;6.88;;
43345;SDS011;28937;51.160;4.146;2023-01-19T09:49:19;10.95;;;6.10;;
43345;SDS011;28937;51.160;4.146;2023-01-19T09:52:00;13.90;;;6.03;;
43345;SDS011;28937;51.160;4.146;2023-01-19T09:54:37;10.63;;;5.50;;
43345;SDS011;28937;51.160;4.146;2023-01-19T09:57:10;13.38;;;5.68;;
43345;SDS011;28937;51.160;4.146;2023-01-19T09:59:36;12.57;;;5.97;;
43345;SDS011;28937;51.160;4.146;2023-01-19T10:04:41;12.90;;;6.45;;
43345;SDS011;28937;51.160;4.146;2023-01-19T10:07:16;12.52;;;5.97;;
43345;SDS011;28937;51.160;4.146;2023-01-19T10:10:08;10.45;;;6.40;;
43345;SDS011;28937;51.160;4.146;2023-01-19T10:15:45;11.25;;;5.90;;
43345;SDS011;28937;51.160;4.146;2023-01-19T10:18:21;10.80;;;6.18;;
43345;SDS011;28937;51.160;4.146;2023-01-19T10:20:59;11.35;;;6.57;;
43345;SDS011;28937;51.160;4.146;2023-01-19T10:23:40;12.82;;;5.75;;
43345;SDS011;28937;51.160;4.146;2023-01-19T10:26:16;13.50;;;6.32;;
43345;SDS011;28937;51.160;4.146;2023-01-19T10:28:47;12.63;;;5.88;;
43345;SDS011;28937;51.160;4.146;2023-01-19T10:31:16;15.90;;;6.15;;
43345;SDS011;28937;51.160;4.146;2023-01-19T10:33:45;8.82;;;6.07;;
43345;SDS011;28937;51.160;4.146;2023-01-19T10:36:18;10.55;;;5.68;;
43345;SDS011;28937;51.160;4.146;2023-01-19T10:39:04;11.95;;;7.07;;
43345;SDS011;28937;51.160;4.146;2023-01-19T10:41:41;11.95;;;6.97;;
43345;SDS011;28937;51.160;4.146;2023-01-19T10:44:23;10.10;;;6.13;;
43345;SDS011;28937;51.160;4.146;2023-01-19T10:46:50;9.45;;;5.97;;
43345;SDS011;28937;51.160;4.146;2023-01-19T10:49:28;16.17;;;6.68;;
43345;SDS011;28937;51.160;4.146;2023-01-19T10:51:55;11.68;;;5.97;;
43345;SDS011;28937;51.160;4.146;2023-01-19T10:54:22;12.30;;;6.53;;
43345;SDS011;28937;51.160;4.146;2023-01-19T10:56:56;12.77;;;6.47;;
43345;SDS011;28937;51.160;4.146;2023-01-19T10:59:28;14.27;;;7.78;;
43345;SDS011;28937;51.160;4.146;2023-01-19T11:04:55;12.32;;;6.97;;
43345;SDS011;28937;51.160;4.146;2023-01-19T11:10:10;11.63;;;7.75;;
43345;SDS011;28937;51.160;4.146;2023-01-19T11:12:43;13.27;;;8.40;;
43345;SDS011;28937;51.160;4.146;2023-01-19T11:15:22;17.05;;;9.55;;
43345;SDS011;28937;51.160;4.146;2023-01-19T11:17:51;16.88;;;10.00;;
43345;SDS011;28937;51.160;4.146;2023-01-19T11:21:03;14.15;;;8.82;;
43345;SDS011;28937;51.160;4.146;2023-01-19T11:25:46;18.50;;;9.02;;
43345;SDS011;28937;51.160;4.146;2023-01-19T11:28:21;27.40;;;9.45;;
43345;SDS011;28937;51.160;4.146;2023-01-19T11:30:59;17.05;;;11.00;;
43345;SDS011;28937;51.160;4.146;2023-01-19T11:33:40;24.45;;;12.82;;
43345;SDS011;28937;51.160;4.146;2023-01-19T11:36:15;22.33;;;12.55;;
43345;SDS011;28937;51.160;4.146;2023-01-19T11:38:45;23.60;;;13.50;;
43345;SDS011;28937;51.160;4.146;2023-01-19T11:41:27;28.92;;;15.65;;
43345;SDS011;28937;51.160;4.146;2023-01-19T11:44:04;32.17;;;19.13;;
43345;SDS011;28937;51.160;4.146;2023-01-19T11:46:38;24.98;;;15.52;;
43345;SDS011;28937;51.160;4.146;2023-01-19T11:49:11;22.98;;;15.82;;
43345;SDS011;28937;51.160;4.146;2023-01-19T11:51:51;36.65;;;16.52;;
43345;SDS011;28937;51.160;4.146;2023-01-19T11:54:34;40.20;;;15.60;;
43345;SDS011;28937;51.160;4.146;2023-01-19T11:57:11;38.80;;;14.63;;
43345;SDS011;28937;51.160;4.146;2023-01-19T11:59:41;44.95;;;14.35;;
43345;SDS011;28937;51.160;4.146;2023-01-19T12:02:17;31.58;;;14.35;;
43345;SDS011;28937;51.160;4.146;2023-01-19T12:04:53;30.85;;;11.95;;
43345;SDS011;28937;51.160;4.146;2023-01-19T12:07:25;29.10;;;12.95;;
43345;SDS011;28937;51.160;4.146;2023-01-19T12:09:56;24.67;;;13.00;;
43345;SDS011;28937;51.160;4.146;2023-01-19T12:12:37;27.80;;;12.13;;
43345;SDS011;28937;51.160;4.146;2023-01-19T12:15:06;22.13;;;13.68;;
43345;SDS011;28937;51.160;4.146;2023-01-19T12:17:44;21.55;;;13.15;;
43345;SDS011;28937;51.160;4.146;2023-01-19T12:23:02;21.35;;;12.90;;
43345;SDS011;28937;51.160;4.146;2023-01-19T12:28:31;24.45;;;13.25;;
43345;SDS011;28937;51.160;4.146;2023-01-19T12:31:01;22.33;;;13.32;;
43345;SDS011;28937;51.160;4.146;2023-01-19T12:35:59;18.52;;;11.82;;
43345;SDS011;28937;51.160;4.146;2023-01-19T12:38:47;23.85;;;13.38;;
43345;SDS011;28937;51.160;4.146;2023-01-19T12:43:44;16.30;;;10.15;;
43345;SDS011;28937;51.160;4.146;2023-01-19T12:46:29;22.42;;;12.93;;
43345;SDS011;28937;51.160;4.146;2023-01-19T12:49:02;18.55;;;11.85;;
43345;SDS011;28937;51.160;4.146;2023-01-19T12:51:30;24.55;;;15.75;;
43345;SDS011;28937;51.160;4.146;2023-01-19T12:53:56;30.10;;;17.25;;
43345;SDS011;28937;51.160;4.146;2023-01-19T12:56:30;29.42;;;17.88;;
43345;SDS011;28937;51.160;4.146;2023-01-19T12:58:58;29.80;;;19.02;;
43345;SDS011;28937;51.160;4.146;2023-01-19T13:01:24;29.88;;;19.58;;
43345;SDS011;28937;51.160;4.146;2023-01-19T13:04:17;29.20;;;15.98;;
43345;SDS011;28937;51.160;4.146;2023-01-19T13:07:05;22.20;;;15.80;;
43345;SDS011;28937;51.160;4.146;2023-01-19T13:09:34;29.08;;;19.95;;
43345;SDS011;28937;51.160;4.146;2023-01-19T13:12:18;27.73;;;19.58;;
43345;SDS011;28937;51.160;4.146;2023-01-19T13:14:45;30.05;;;18.17;;
43345;SDS011;28937;51.160;4.146;2023-01-19T13:19:50;25.15;;;18.77;;
43345;SDS011;28937;51.160;4.146;2023-01-19T13:25:27;23.48;;;17.48;;
43345;SDS011;28937;51.160;4.146;2023-01-19T13:27:53;24.75;;;17.60;;
43345;SDS011;28937;51.160;4.146;2023-01-19T13:30:20;23.75;;;16.33;;
43345;SDS011;28937;51.160;4.146;2023-01-19T13:32:50;23.85;;;16.67;;
43345;SDS011;28937;51.160;4.146;2023-01-19T13:35:18;29.80;;;16.48;;
43345;SDS011;28937;51.160;4.146;2023-01-19T13:37:45;25.80;;;16.70;;
43345;SDS011;28937;51.160;4.146;2023-01-19T13:40:22;23.80;;;16.65;;
43345;SDS011;28937;51.160;4.146;2023-01-19T13:42:51;23.58;;;16.45;;
43345;SDS011;28937;51.160;4.146;2023-01-19T13:45:30;21.95;;;16.00;;
43345;SDS011;28937;51.160;4.146;2023-01-19T13:47:58;25.13;;;15.80;;
43345;SDS011;28937;51.160;4.146;2023-01-19T13:50:28;24.30;;;16.10;;
43345;SDS011;28937;51.160;4.146;2023-01-19T13:52:55;23.55;;;16.23;;
43345;SDS011;28937;51.160;4.146;2023-01-19T13:55:23;23.20;;;12.95;;
43345;SDS011;28937;51.160;4.146;2023-01-19T13:57:50;24.25;;;15.13;;
43345;SDS011;28937;51.160;4.146;2023-01-19T14:00:21;21.92;;;15.13;;
43345;SDS011;28937;51.160;4.146;2023-01-19T14:08:03;21.70;;;15.60;;
43345;SDS011;28937;51.160;4.146;2023-01-19T14:13:12;21.23;;;14.75;;
43345;SDS011;28937;51.160;4.146;2023-01-19T14:15:43;21.92;;;14.98;;
43345;SDS011;28937;51.160;4.146;2023-01-19T14:20:55;22.67;;;14.45;;
43345;SDS011;28937;51.160;4.146;2023-01-19T14:37:18;24.13;;;14.15;;
43345;SDS011;28937;51.160;4.146;2023-01-19T14:39:54;22.70;;;14.27;;
43345;SDS011;28937;51.160;4.146;2023-01-19T14:42:36;22.25;;;14.18;;
43345;SDS011;28937;51.160;4.146;2023-01-19T14:45:15;19.95;;;14.85;;
43345;SDS011;28937;51.160;4.146;2023-01-19T14:47:43;24.02;;;14.88;;
43345;SDS011;28937;51.160;4.146;2023-01-19T14:50:19;24.60;;;14.95;;
43345;SDS011;28937;51.160;4.146;2023-01-19T14:55:21;21.50;;;14.30;;
43345;SDS011;28937;51.160;4.146;2023-01-19T14:57:50;23.95;;;14.68;;
43345;SDS011;28937;51.160;4.146;2023-01-19T15:00:16;19.90;;;14.25;;
43345;SDS011;28937;51.160;4.146;2023-01-19T15:02:43;20.83;;;12.98;;
43345;SDS011;28937;51.160;4.146;2023-01-19T15:05:10;26.48;;;14.25;;
43345;SDS011;28937;51.160;4.146;2023-01-19T15:07:36;22.90;;;14.73;;
43345;SDS011;28937;51.160;4.146;2023-01-19T15:10:04;21.17;;;13.73;;
43345;SDS011;28937;51.160;4.146;2023-01-19T15:12:38;21.45;;;12.35;;
43345;SDS011;28937;51.160;4.146;2023-01-19T15:15:03;19.33;;;12.27;;
43345;SDS011;28937;51.160;4.146;2023-01-19T15:17:30;16.85;;;11.70;;
43345;SDS011;28937;51.160;4.146;2023-01-19T15:19:56;23.23;;;13.55;;
43345;SDS011;28937;51.160;4.146;2023-01-19T15:22:23;23.48;;;13.18;;
43345;SDS011;28937;51.160;4.146;2023-01-19T15:24:51;19.58;;;13.10;;
43345;SDS011;28937;51.160;4.146;2023-01-19T15:27:21;18.08;;;12.30;;
43345;SDS011;28937;51.160;4.146;2023-01-19T15:29:47;25.33;;;13.18;;
43345;SDS011;28937;51.160;4.146;2023-01-19T15:32:13;26.35;;;16.00;;
43345;SDS011;28937;51.160;4.146;2023-01-19T15:34:39;26.52;;;17.35;;
43345;SDS011;28937;51.160;4.146;2023-01-19T15:37:06;30.10;;;18.60;;
43345;SDS011;28937;51.160;4.146;2023-01-19T15:39:31;27.92;;;17.45;;
43345;SDS011;28937;51.160;4.146;2023-01-19T15:41:57;21.48;;;14.55;;
43345;SDS011;28937;51.160;4.146;2023-01-19T15:44:24;26.23;;;15.57;;
43345;SDS011;28937;51.160;4.146;2023-01-19T15:46:50;22.40;;;14.55;;
43345;SDS011;28937;51.160;4.146;2023-01-19T15:49:17;25.65;;;17.00;;
43345;SDS011;28937;51.160;4.146;2023-01-19T15:51:43;22.08;;;15.43;;
43345;SDS011;28937;51.160;4.146;2023-01-19T15:54:11;22.58;;;14.43;;